Dennysville, Maine
Current Conditions -  °F | °C
As of 7:55 AM on Wednesday 26 Nov 2014 (Local Time) from KBHB Reporting Station
Clear Clear  
Wind Chill: 41°   Ceiling: Unl
Heat Index: 41°   Visibility: 10mi
Dew Point: 30°   Wind: 0mph
Humidity: 65%   Direction: NA
Pressure: 30.2"   Gusts: NA
Location:  44.9°N, 67.23°W
Report Text: KBHB 261255Z AUTO 00000KT 10SM CLR 05/M01 A3020 RMK AO1
Loading
Personal Weather Stations






























Interactive Weather Map New forecast layout! Learn more

10-Day Weather Forecast

Advertisements
Track Severe Weather on mobile